Time;durP1;ratioP1;P1;durP2;ratioP2;P2;SDS_P1;SDS_P2;PMS_P1;PMS_P2;Temp;Humidity;BMP_temperature;BMP_pressure;BME280_temperature;BME280_humidity;BME280_pressure;Samples;Min_cycle;Max_cycle;Signal;HPM_P1;HPM_P2
2022/02/27 00:01:52;;;;;;;46.35;16.52;;;;;;;2.41;100.00;103334.97;5071400;28;20035;-76
2022/02/27 00:04:18;;;;;;;48.85;16.45;;;;;;;2.42;100.00;103337.72;5072111;28;20036;-76
2022/02/27 00:06:43;;;;;;;50.53;16.77;;;;;;;2.37;100.00;103336.38;5055356;28;20070;-76
2022/02/27 00:09:09;;;;;;;43.88;17.35;;;;;;;2.36;100.00;103338.09;5076260;28;20480;-76
2022/02/27 00:11:34;;;;;;;46.60;16.70;;;;;;;2.38;100.00;103345.13;5069439;28;20029;-77
2022/02/27 00:13:59;;;;;;;50.55;16.55;;;;;;;2.31;100.00;103341.94;5049550;28;20025;-75
2022/02/27 00:16:25;;;;;;;50.17;17.40;;;;;;;2.31;100.00;103343.63;5060788;28;20132;-75
2022/02/27 00:18:50;;;;;;;54.83;16.98;;;;;;;2.28;100.00;103343.34;5071283;28;20032;-76
2022/02/27 00:21:16;;;;;;;41.65;15.75;;;;;;;2.24;100.00;103336.03;5051269;28;20025;-76
2022/02/27 00:23:41;;;;;;;47.10;15.55;;;;;;;2.22;100.00;103338.50;5056248;28;20025;-77
2022/02/27 00:26:06;;;;;;;49.00;17.42;;;;;;;2.21;100.00;103341.88;5053958;28;20027;-76
2022/02/27 00:28:32;;;;;;;43.08;16.90;;;;;;;2.23;100.00;103339.44;5064305;28;20111;-76
2022/02/27 00:30:57;;;;;;;38.75;16.17;;;;;;;2.19;100.00;103333.03;5070616;28;20031;-75
2022/02/27 00:33:23;;;;;;;43.88;15.25;;;;;;;2.17;100.00;103337.16;5052026;28;20409;-76
2022/02/27 00:35:48;;;;;;;54.05;16.67;;;;;;;2.15;100.00;103325.75;5066254;28;20484;-75
2022/02/27 00:38:13;;;;;;;41.75;15.32;;;;;;;2.10;100.00;103335.69;5066657;28;20123;-76
2022/02/27 00:40:39;;;;;;;49.63;17.67;;;;;;;2.07;100.00;103337.13;5070142;28;20104;-76
2022/02/27 00:43:05;;;;;;;54.05;17.42;;;;;;;2.07;100.00;103330.22;5069643;28;20035;-76
2022/02/27 00:45:30;;;;;;;45.67;15.68;;;;;;;2.08;100.00;103336.34;5054459;28;20514;-76
2022/02/27 00:47:55;;;;;;;40.90;16.05;;;;;;;2.08;100.00;103333.75;5065634;28;20103;-76
2022/02/27 00:50:21;;;;;;;39.42;14.95;;;;;;;2.04;100.00;103332.56;5065204;28;20109;-76
2022/02/27 00:52:46;;;;;;;40.78;15.65;;;;;;;2.05;100.00;103323.06;5053841;28;20388;-76
2022/02/27 00:55:12;;;;;;;40.28;15.10;;;;;;;1.99;100.00;103336.41;5069229;28;20039;-77
2022/02/27 00:57:37;;;;;;;45.47;14.55;;;;;;;2.00;100.00;103338.25;5074594;28;20021;-76
2022/02/27 01:00:07;;;;;;;31.88;13.27;;;;;;;1.98;100.00;103332.91;5063393;28;20087;-76
2022/02/27 01:02:32;;;;;;;33.97;13.98;;;;;;;1.95;100.00;103335.19;5049779;28;20036;-77
2022/02/27 01:04:57;;;;;;;45.15;15.40;;;;;;;1.93;100.00;103322.88;5065164;28;20492;-75
2022/02/27 01:07:23;;;;;;;39.47;16.00;;;;;;;1.92;100.00;103328.84;5053651;28;20078;-75
2022/02/27 01:09:48;;;;;;;40.40;15.15;;;;;;;1.89;100.00;103323.38;5079533;28;20039;-76
2022/02/27 01:12:13;;;;;;;41.50;15.63;;;;;;;1.87;100.00;103322.31;5072781;28;20025;-77
2022/02/27 01:14:39;;;;;;;44.63;15.18;;;;;;;1.88;100.00;103332.81;5057577;28;20131;-76
2022/02/27 01:17:06;;;;;;;38.67;16.23;;;;;;;1.85;100.00;103324.75;5076663;28;20025;-76
2022/02/27 01:19:34;;;;;;;42.38;14.27;;;;;;;1.87;100.00;103318.00;5069232;28;20025;-76
2022/02/27 01:22:00;;;;;;;40.67;15.10;;;;;;;1.83;100.00;103314.25;5069935;28;20536;-77
2022/02/27 01:24:26;;;;;;;46.35;15.52;;;;;;;1.80;100.00;103311.34;5058785;28;20457;-77
2022/02/27 01:26:51;;;;;;;38.92;14.15;;;;;;;1.79;100.00;103308.59;5063442;28;20021;-76
2022/02/27 01:29:17;;;;;;;36.60;13.85;;;;;;;1.78;100.00;103312.91;5069649;28;20487;-76
2022/02/27 01:31:42;;;;;;;43.97;15.70;;;;;;;1.80;100.00;103305.25;5070046;28;20037;-77
2022/02/27 01:34:07;;;;;;;40.45;13.80;;;;;;;1.78;100.00;103307.69;5059639;28;20027;-77
2022/02/27 01:36:33;;;;;;;36.42;16.17;;;;;;;1.77;100.00;103310.16;5072195;28;20484;-75
2022/02/27 01:38:58;;;;;;;40.95;13.80;;;;;;;1.75;100.00;103307.44;5093923;28;20361;-75
2022/02/27 01:41:25;;;;;;;38.60;15.43;;;;;;;1.73;100.00;103313.25;5069260;28;20025;-76
2022/02/27 01:43:50;;;;;;;35.65;13.88;;;;;;;1.71;100.00;103309.59;5075170;28;20061;-76
2022/02/27 01:46:16;;;;;;;42.85;13.80;;;;;;;1.69;100.00;103312.94;5053270;28;20541;-76
2022/02/27 01:48:41;;;;;;;47.03;14.07;;;;;;;1.66;100.00;103312.66;5055346;28;20097;-76
2022/02/27 01:51:07;;;;;;;36.90;14.45;;;;;;;1.64;100.00;103314.22;5025099;28;20026;-76
2022/02/27 01:53:33;;;;;;;38.67;13.50;;;;;;;1.64;100.00;103313.28;5058011;28;20085;-77
2022/02/27 01:55:59;;;;;;;33.97;12.70;;;;;;;1.65;100.00;103313.44;5052213;28;20029;-77
2022/02/27 01:58:29;;;;;;;31.27;13.48;;;;;;;1.65;100.00;103321.22;5020955;28;20028;-77
2022/02/27 02:00:58;;;;;;;27.90;11.98;;;;;;;1.64;100.00;103319.41;5049901;28;20025;-76
2022/02/27 02:03:26;;;;;;;38.30;13.32;;;;;;;1.63;100.00;103319.28;5044814;28;20500;-76
2022/02/27 02:05:51;;;;;;;39.58;14.55;;;;;;;1.62;100.00;103320.03;5053696;28;20508;-75
2022/02/27 02:08:17;;;;;;;37.20;12.10;;;;;;;1.63;100.00;103315.00;5028564;28;20072;-75
2022/02/27 02:10:43;;;;;;;40.80;12.13;;;;;;;1.62;100.00;103314.84;5051950;28;20025;-76
2022/02/27 02:13:09;;;;;;;26.77;11.73;;;;;;;1.65;100.00;103310.84;5008574;28;20480;-77
2022/02/27 02:15:35;;;;;;;29.77;12.82;;;;;;;1.62;100.00;103315.75;5032382;28;20028;-76
2022/02/27 02:18:00;;;;;;;38.35;12.23;;;;;;;1.63;100.00;103316.69;5052504;28;20480;-76
2022/02/27 02:20:26;;;;;;;28.58;11.88;;;;;;;1.62;100.00;103317.44;5023265;28;20037;-76
2022/02/27 02:22:51;;;;;;;25.52;10.60;;;;;;;1.55;100.00;103300.38;5029411;28;20115;-76
2022/02/27 02:25:17;;;;;;;34.65;10.77;;;;;;;1.57;100.00;103303.13;5046133;28;20481;-77
2022/02/27 02:27:43;;;;;;;31.60;10.95;;;;;;;1.55;100.00;103313.38;5030303;28;20029;-76
2022/02/27 02:30:09;;;;;;;27.27;10.80;;;;;;;1.55;100.00;103307.25;5030221;28;20084;-77
2022/02/27 02:32:50;;;;;;;35.90;11.68;;;;;;;1.56;100.00;103307.41;5028776;28;20025;-76
2022/02/27 02:35:17;;;;;;;40.95;12.50;;;;;;;1.53;100.00;103296.72;5025771;28;20028;-76
2022/02/27 02:37:42;;;;;;;32.20;10.23;;;;;;;1.52;100.00;103298.41;5036380;28;20041;-76
2022/02/27 02:40:09;;;;;;;32.58;10.07;;;;;;;1.51;100.00;103301.78;5027050;28;20480;-76
2022/02/27 02:42:42;;;;;;;38.80;12.88;;;;;;;1.54;100.00;103300.25;5031760;28;20063;-76
2022/02/27 02:45:09;;;;;;;32.75;11.57;;;;;;;1.55;100.00;103297.78;5046373;28;20021;-77
2022/02/27 02:47:37;;;;;;;23.42;10.38;;;;;;;1.52;100.00;103295.81;5034248;28;20049;-77
2022/02/27 02:50:03;;;;;;;25.15;10.73;;;;;;;1.49;100.00;103286.81;5061585;28;20055;-76
2022/02/27 02:52:28;;;;;;;25.73;10.93;;;;;;;1.42;100.00;103292.22;5060304;28;20040;-76
2022/02/27 02:54:54;;;;;;;21.60;10.18;;;;;;;1.40;100.00;103291.16;5037010;28;20117;-76
2022/02/27 02:57:19;;;;;;;25.20;11.18;;;;;;;1.33;100.00;103285.41;5064457;28;20025;-76
2022/02/27 02:59:45;;;;;;;22.45;9.90;;;;;;;1.31;100.00;103284.34;5054151;28;20101;-76
2022/02/27 03:02:11;;;;;;;26.50;10.57;;;;;;;1.31;100.00;103286.94;5057946;28;20065;-76
2022/02/27 03:04:36;;;;;;;29.77;11.18;;;;;;;1.31;100.00;103286.03;5058699;28;20033;-76
2022/02/27 03:07:03;;;;;;;30.13;10.93;;;;;;;1.28;100.00;103281.47;5048796;28;20114;-76
2022/02/27 03:09:28;;;;;;;33.75;11.55;;;;;;;1.22;100.00;103277.38;5072030;28;20035;-75
2022/02/27 03:11:53;;;;;;;33.35;10.57;;;;;;;1.22;100.00;103275.72;5049093;28;20029;-74
2022/02/27 03:14:19;;;;;;;21.67;10.20;;;;;;;1.18;100.00;103276.19;5059456;28;20037;-75
2022/02/27 03:16:44;;;;;;;29.90;10.10;;;;;;;1.16;100.00;103281.22;5067427;28;20502;-76
2022/02/27 03:19:09;;;;;;;33.60;10.93;;;;;;;1.18;100.00;103273.59;5057554;28;20078;-76
2022/02/27 03:21:35;;;;;;;23.45;10.05;;;;;;;1.18;100.00;103265.81;5049165;28;20027;-76
2022/02/27 03:24:00;;;;;;;28.83;10.23;;;;;;;1.16;100.00;103265.66;5049531;28;20021;-75
2022/02/27 03:26:25;;;;;;;29.27;10.32;;;;;;;1.16;100.00;103262.16;5048091;28;20421;-76
2022/02/27 03:28:51;;;;;;;33.22;10.45;;;;;;;1.17;100.00;103262.31;5061525;28;20032;-76
2022/02/27 03:31:17;;;;;;;20.30;9.95;;;;;;;1.15;100.00;103263.88;5045875;28;20111;-76
2022/02/27 03:33:42;;;;;;;19.40;9.93;;;;;;;1.14;100.00;103258.50;5051661;28;20025;-76
2022/02/27 03:36:08;;;;;;;28.05;9.80;;;;;;;1.16;100.00;103254.38;5067032;28;20039;-76
2022/02/27 03:38:34;;;;;;;19.02;9.15;;;;;;;1.16;100.00;103262.16;5061136;28;20099;-76
2022/02/27 03:41:00;;;;;;;26.02;9.93;;;;;;;1.13;100.00;103254.09;5043580;28;20024;-76
2022/02/27 03:43:25;;;;;;;27.40;8.43;;;;;;;1.12;100.00;103252.28;5048830;28;20052;-76
2022/02/27 03:45:50;;;;;;;31.48;9.95;;;;;;;1.11;100.00;103255.63;5050554;28;20020;-76
2022/02/27 03:48:16;;;;;;;22.35;10.50;;;;;;;1.14;100.00;103263.69;5068547;28;20400;-76
2022/02/27 03:50:41;;;;;;;22.70;8.60;;;;;;;1.13;100.00;103257.59;5064820;28;20473;-76
2022/02/27 03:53:06;;;;;;;26.05;9.68;;;;;;;1.14;100.00;103255.91;5063891;28;20025;-76
2022/02/27 03:55:32;;;;;;;26.63;10.07;;;;;;;1.13;100.00;103257.59;5058323;28;20024;-76
2022/02/27 03:57:57;;;;;;;18.52;8.50;;;;;;;1.13;100.00;103256.69;5056427;28;20025;-76
2022/02/27 04:00:24;;;;;;;25.55;8.65;;;;;;;1.14;100.00;103262.03;5062037;28;20365;-75
2022/02/27 04:02:50;;;;;;;25.48;10.77;;;;;;;1.13;100.00;103267.06;5067338;28;20051;-77
2022/02/27 04:05:18;;;;;;;23.10;8.43;;;;;;;1.10;100.00;103258.97;5065396;28;20504;-77
2022/02/27 04:07:44;;;;;;;25.13;8.25;;;;;;;1.11;100.00;103266.00;5062837;28;20024;-77
2022/02/27 04:10:11;;;;;;;24.00;9.00;;;;;;;1.12;100.00;103267.84;5055245;28;20024;-77
2022/02/27 04:12:36;;;;;;;23.35;9.15;;;;;;;1.12;100.00;103265.25;5053873;28;20048;-76
2022/02/27 04:15:03;;;;;;;20.23;9.20;;;;;;;1.10;100.00;103264.16;5056121;28;20127;-76
2022/02/27 04:17:29;;;;;;;26.00;9.30;;;;;;;1.08;100.00;103258.84;5058969;28;20070;-76
2022/02/27 04:19:55;;;;;;;21.30;9.32;;;;;;;1.09;100.00;103254.59;5039749;28;20469;-77
2022/02/27 04:22:20;;;;;;;22.50;9.70;;;;;;;1.09;100.00;103254.59;5064847;28;20021;-76
2022/02/27 04:24:46;;;;;;;27.80;10.18;;;;;;;1.08;100.00;103256.25;5035837;28;20037;-77
2022/02/27 04:27:11;;;;;;;24.30;9.23;;;;;;;1.08;100.00;103250.16;5047566;28;20021;-76
2022/02/27 04:29:36;;;;;;;20.83;9.13;;;;;;;1.07;100.00;103248.34;5066925;28;20465;-76
2022/02/27 04:32:04;;;;;;;22.73;8.60;;;;;;;1.06;100.00;103254.28;5057091;28;20021;-76
2022/02/27 04:34:29;;;;;;;27.15;9.40;;;;;;;1.04;100.00;103255.84;5027322;28;20028;-77
2022/02/27 04:36:54;;;;;;;27.40;9.00;;;;;;;0.99;100.00;103258.91;5070083;28;20024;-76
2022/02/27 04:39:20;;;;;;;25.80;7.90;;;;;;;0.97;100.00;103259.53;5056610;28;20067;-75
2022/02/27 04:41:45;;;;;;;14.80;8.45;;;;;;;0.98;100.00;103270.03;5052477;28;20024;-76
2022/02/27 04:44:10;;;;;;;31.10;9.45;;;;;;;0.98;100.00;103253.59;5056172;28;20029;-77
2022/02/27 04:46:36;;;;;;;31.00;9.85;;;;;;;0.94;100.00;103262.72;5036194;28;20027;-77
2022/02/27 04:49:01;;;;;;;21.73;9.30;;;;;;;0.94;100.00;103261.84;5050723;28;20049;-77
2022/02/27 04:51:26;;;;;;;23.23;9.35;;;;;;;0.89;100.00;103253.59;5050074;28;20158;-77
2022/02/27 04:53:52;;;;;;;22.35;9.57;;;;;;;0.89;100.00;103258.78;5056726;28;20484;-77
2022/02/27 04:56:17;;;;;;;23.42;8.40;;;;;;;0.88;100.00;103266.41;5047353;28;20484;-76
2022/02/27 04:58:42;;;;;;;25.05;9.55;;;;;;;0.85;100.00;103261.84;5057941;28;20366;-77
2022/02/27 05:01:08;;;;;;;26.00;9.05;;;;;;;0.80;100.00;103263.09;5059400;28;20039;-77
2022/02/27 05:03:33;;;;;;;19.25;8.75;;;;;;;0.77;100.00;103260.22;5047508;28;20052;-76
2022/02/27 05:05:58;;;;;;;28.67;9.52;;;;;;;0.76;100.00;103263.56;5042466;28;20051;-75
2022/02/27 05:08:24;;;;;;;25.38;9.80;;;;;;;0.72;100.00;103258.84;5067437;28;20067;-75
2022/02/27 05:10:49;;;;;;;21.65;9.80;;;;;;;0.70;100.00;103255.22;5049571;28;20073;-77
2022/02/27 05:13:15;;;;;;;20.75;10.18;;;;;;;0.69;100.00;103253.41;5069204;28;20020;-77
2022/02/27 05:15:40;;;;;;;19.05;9.30;;;;;;;0.65;100.00;103253.09;5057421;28;20135;-77
2022/02/27 05:18:05;;;;;;;24.83;9.52;;;;;;;0.61;100.00;103244.88;5058291;28;20043;-75
2022/02/27 05:20:31;;;;;;;22.92;9.88;;;;;;;0.59;100.00;103242.13;5035406;28;20492;-75
2022/02/27 05:22:56;;;;;;;19.15;9.15;;;;;;;0.58;100.00;103240.31;5069400;28;20757;-76
2022/02/27 05:25:22;;;;;;;23.50;8.75;;;;;;;0.58;100.00;103235.13;5068086;28;20108;-76
2022/02/27 05:27:50;;;;;;;17.60;8.95;;;;;;;0.53;100.00;103235.47;5050274;28;20074;-76
2022/02/27 05:30:16;;;;;;;21.92;8.65;;;;;;;0.53;100.00;103233.81;5061632;28;20032;-76
2022/02/27 05:32:42;;;;;;;21.10;9.20;;;;;;;0.54;100.00;103230.41;5070642;28;20486;-76
2022/02/27 05:35:08;;;;;;;20.20;8.75;;;;;;;0.53;100.00;103228.63;5043048;28;20017;-76
2022/02/27 05:37:33;;;;;;;24.17;8.55;;;;;;;0.54;100.00;103225.25;5067029;28;20567;-76
2022/02/27 05:39:59;;;;;;;19.25;8.23;;;;;;;0.55;100.00;103219.28;5056048;28;20063;-76
2022/02/27 05:42:24;;;;;;;20.10;8.25;;;;;;;0.55;100.00;103219.28;5058158;28;20016;-76
2022/02/27 05:44:50;;;;;;;22.55;9.52;;;;;;;0.57;100.00;103217.78;5051156;28;20025;-76
2022/02/27 05:47:15;;;;;;;28.08;9.70;;;;;;;0.62;100.00;103223.38;5045997;28;20052;-76
2022/02/27 05:49:41;;;;;;;23.35;8.80;;;;;;;0.57;100.00;103217.78;5062396;28;20127;-76
2022/02/27 05:52:06;;;;;;;26.83;9.07;;;;;;;0.58;100.00;103218.69;5053401;28;20024;-76
2022/02/27 05:54:32;;;;;;;18.15;9.32;;;;;;;0.58;100.00;103221.28;5055250;28;20020;-76
2022/02/27 05:56:57;;;;;;;18.40;8.27;;;;;;;0.60;100.00;103228.44;5070146;28;20032;-76
2022/02/27 05:59:25;;;;;;;22.40;8.43;;;;;;;0.57;100.00;103230.72;5069610;28;20507;-77
2022/02/27 06:01:50;;;;;;;20.50;8.20;;;;;;;0.59;100.00;103236.97;5066758;28;20032;-78
2022/02/27 06:04:16;;;;;;;29.65;9.10;;;;;;;0.56;100.00;103239.25;5054603;28;20032;-76
2022/02/27 06:06:41;;;;;;;22.70;8.25;;;;;;;0.54;100.00;103243.38;5056950;28;20027;-76
2022/02/27 06:09:07;;;;;;;20.17;8.95;;;;;;;0.54;100.00;103245.97;5075501;28;20023;-75
2022/02/27 06:11:32;;;;;;;19.90;8.57;;;;;;;0.52;100.00;103254.34;5064592;28;20025;-76
2022/02/27 06:13:57;;;;;;;23.15;8.80;;;;;;;0.50;100.00;103254.19;5057342;28;20037;-76
2022/02/27 06:16:23;;;;;;;21.52;8.02;;;;;;;0.49;100.00;103250.72;5046768;28;20135;-76
2022/02/27 06:18:49;;;;;;;18.25;8.48;;;;;;;0.50;100.00;103247.38;5063742;28;20025;-76
2022/02/27 06:21:14;;;;;;;17.88;7.68;;;;;;;0.53;100.00;103246.75;5049965;28;20040;-76
2022/02/27 06:23:39;;;;;;;20.40;8.35;;;;;;;0.54;100.00;103243.38;5064536;28;20024;-76
2022/02/27 06:26:05;;;;;;;24.92;8.02;;;;;;;0.56;100.00;103247.03;5067248;28;20563;-76
2022/02/27 06:28:30;;;;;;;15.35;7.28;;;;;;;0.59;100.00;103247.31;5056727;28;20028;-77
2022/02/27 06:30:55;;;;;;;22.00;7.68;;;;;;;0.59;100.00;103242.13;5064692;28;20028;-77
2022/02/27 06:33:20;;;;;;;18.17;7.47;;;;;;;0.65;100.00;103242.75;5062350;28;20055;-77
2022/02/27 06:35:46;;;;;;;22.25;7.38;;;;;;;0.65;100.00;103241.81;5066282;28;20475;-77
2022/02/27 06:38:11;;;;;;;15.68;7.88;;;;;;;0.63;100.00;103239.06;5046097;28;20036;-77
2022/02/27 06:40:36;;;;;;;16.50;7.28;;;;;;;0.66;100.00;103243.63;5046909;28;20056;-77
2022/02/27 06:43:04;;;;;;;20.40;7.63;;;;;;;0.66;100.00;103239.41;5063899;28;20039;-77
2022/02/27 06:45:29;;;;;;;24.10;7.15;;;;;;;0.67;100.00;103236.00;5055562;28;20024;-77
2022/02/27 06:47:55;;;;;;;17.92;7.05;;;;;;;0.67;100.00;103241.19;5064441;28;20020;-77
2022/02/27 06:50:20;;;;;;;17.50;7.88;;;;;;;0.71;100.00;103249.28;5072966;28;20056;-76
2022/02/27 06:52:45;;;;;;;27.23;8.95;;;;;;;0.72;100.00;103253.69;5076288;28;20040;-76
2022/02/27 06:55:15;;;;;;;17.85;7.22;;;;;;;0.71;100.00;103257.06;5060739;28;20040;-76
2022/02/27 06:57:42;;;;;;;27.38;8.02;;;;;;;0.74;100.00;103258.25;5060489;28;20486;-76
2022/02/27 07:00:09;;;;;;;19.83;7.28;;;;;;;0.77;100.00;103258.53;5063755;28;20016;-77
2022/02/27 07:02:36;;;;;;;18.70;7.00;;;;;;;0.77;100.00;103252.44;5050415;28;20420;-78
2022/02/27 07:05:02;;;;;;;24.50;7.38;;;;;;;0.78;100.00;103251.69;5054369;28;20036;-77
2022/02/27 07:07:28;;;;;;;20.70;8.27;;;;;;;0.80;100.00;103252.72;5054099;28;20184;-77
2022/02/27 07:09:55;;;;;;;17.40;6.75;;;;;;;0.83;100.00;103259.13;5060332;28;20120;-77
2022/02/27 07:12:20;;;;;;;14.68;7.20;;;;;;;0.87;100.00;103262.00;5049127;28;20142;-77
2022/02/27 07:14:46;;;;;;;14.90;7.82;;;;;;;0.87;100.00;103265.53;5073659;28;20036;-77
2022/02/27 07:17:11;;;;;;;21.15;7.53;;;;;;;0.88;100.00;103262.13;5055101;28;20032;-77
2022/02/27 07:19:37;;;;;;;15.52;7.32;;;;;;;0.91;100.00;103262.47;5052855;28;20024;-77
2022/02/27 07:22:05;;;;;;;18.23;7.30;;;;;;;0.95;100.00;103254.19;5048282;28;20029;-77
2022/02/27 07:24:30;;;;;;;23.25;7.65;;;;;;;0.99;100.00;103252.78;5068717;28;20025;-77
2022/02/27 07:26:55;;;;;;;18.30;7.10;;;;;;;1.07;100.00;103253.53;5073074;28;20031;-77
2022/02/27 07:29:21;;;;;;;26.77;7.45;;;;;;;1.09;100.00;103252.00;5054102;28;20029;-77
2022/02/27 07:31:46;;;;;;;17.15;7.47;;;;;;;1.16;100.00;103241.41;5072268;28;20111;-77
2022/02/27 07:34:12;;;;;;;15.55;6.65;;;;;;;1.21;100.00;103250.56;5060672;28;20029;-76
2022/02/27 07:36:38;;;;;;;16.33;6.95;;;;;;;1.25;100.00;103246.53;5042497;28;20055;-77
2022/02/27 07:39:03;;;;;;;22.55;7.40;;;;;;;1.27;100.00;103243.31;5050528;28;20444;-77
2022/02/27 07:41:28;;;;;;;22.08;7.63;;;;;;;1.32;100.00;103252.44;5068898;28;20032;-76
2022/02/27 07:43:54;;;;;;;19.27;6.82;;;;;;;1.38;100.00;103252.09;5040222;28;20166;-77
2022/02/27 07:46:19;;;;;;;21.33;7.53;;;;;;;1.41;100.00;103262.78;5055229;28;20162;-75
2022/02/27 07:48:44;;;;;;;14.02;6.50;;;;;;;1.44;100.00;103259.53;5044870;28;20060;-76
2022/02/27 07:51:10;;;;;;;18.58;7.25;;;;;;;1.49;100.00;103260.88;5064486;28;20056;-76
2022/02/27 07:53:35;;;;;;;17.95;7.00;;;;;;;1.51;100.00;103264.56;5061932;28;20040;-76
2022/02/27 07:56:01;;;;;;;28.42;7.90;;;;;;;1.54;100.00;103275.19;5064592;28;20463;-75
2022/02/27 07:58:26;;;;;;;18.45;7.30;;;;;;;1.56;100.00;103264.97;5041831;28;20037;-76
2022/02/27 08:00:51;;;;;;;22.05;6.75;;;;;;;1.59;100.00;103263.56;5058046;28;20047;-75
2022/02/27 08:03:17;;;;;;;16.92;7.10;;;;;;;1.62;100.00;103265.53;5050396;28;20384;-75
2022/02/27 08:05:42;;;;;;;19.63;6.75;;;;;;;1.66;100.00;103272.84;5052357;28;20031;-75
2022/02/27 08:08:07;;;;;;;23.17;6.70;;;;;;;1.72;100.00;103264.69;5070759;28;20031;-75
2022/02/27 08:10:36;;;;;;;20.38;7.95;;;;;;;1.74;100.00;103264.06;5061669;28;20039;-76
2022/02/27 08:13:01;;;;;;;15.95;8.18;;;;;;;1.81;100.00;103265.53;5056995;28;20044;-76
2022/02/27 08:15:26;;;;;;;21.58;7.20;;;;;;;1.88;100.00;103261.81;5045289;28;20036;-75
2022/02/27 08:17:53;;;;;;;18.33;6.85;;;;;;;1.92;100.00;103258.72;5034788;28;20036;-75
2022/02/27 08:20:18;;;;;;;14.75;7.30;;;;;;;2.00;100.00;103252.53;5067790;28;20033;-74
2022/02/27 08:22:44;;;;;;;14.57;6.90;;;;;;;2.02;100.00;103261.38;5045140;28;20473;-75
2022/02/27 08:25:15;;;;;;;15.85;6.03;;;;;;;2.08;100.00;103253.25;5068981;28;20033;-75
2022/02/27 08:27:42;;;;;;;18.70;7.18;;;;;;;2.11;100.00;103251.81;5066112;28;20111;-76
2022/02/27 08:30:08;;;;;;;19.38;7.20;;;;;;;2.15;100.00;103253.00;5061561;28;20021;-76
2022/02/27 08:32:34;;;;;;;16.75;6.70;;;;;;;2.18;100.00;103242.88;5061323;28;20071;-76
2022/02/27 08:35:02;;;;;;;14.00;5.25;;;;;;;2.25;100.00;103250.47;5055833;28;20025;-76
2022/02/27 08:37:27;;;;;;;14.55;6.25;;;;;;;2.30;100.00;103254.38;5071665;28;20096;-77
2022/02/27 08:39:53;;;;;;;13.63;5.63;;;;;;;2.39;99.44;103250.78;5049005;28;20024;-76
2022/02/27 08:42:18;;;;;;;14.85;5.55;;;;;;;2.43;99.24;103251.19;5064941;28;20075;-76
2022/02/27 08:44:44;;;;;;;11.18;5.25;;;;;;;2.46;99.19;103245.38;5044160;28;20075;-76
2022/02/27 08:47:09;;;;;;;19.42;5.60;;;;;;;2.50;99.22;103244.84;5061590;28;20067;-76
2022/02/27 08:49:34;;;;;;;13.98;5.18;;;;;;;2.57;99.53;103239.41;5060037;28;20076;-76
2022/02/27 08:52:01;;;;;;;15.93;5.30;;;;;;;2.68;98.86;103250.75;5043772;28;20048;-75
2022/02/27 08:54:26;;;;;;;12.65;5.20;;;;;;;2.78;98.44;103249.84;5064647;28;20447;-77
2022/02/27 08:56:52;;;;;;;14.10;5.18;;;;;;;2.83;98.29;103238.19;5046871;28;20111;-76
2022/02/27 08:59:17;;;;;;;16.10;4.70;;;;;;;2.94;97.91;103231.31;5067386;28;20116;-77
2022/02/27 09:01:43;;;;;;;21.30;5.00;;;;;;;3.02;97.23;103238.97;5072673;28;20017;-75
2022/02/27 09:04:09;;;;;;;14.57;4.88;;;;;;;3.16;96.66;103241.84;5057617;28;20054;-77
2022/02/27 09:06:35;;;;;;;12.02;4.50;;;;;;;3.27;95.57;103238.50;5053176;28;20404;-78
2022/02/27 09:09:00;;;;;;;11.52;4.38;;;;;;;3.33;95.91;103236.38;5050261;28;20032;-76
2022/02/27 09:11:26;;;;;;;12.13;5.00;;;;;;;3.49;94.90;103236.00;5060149;28;20029;-77
2022/02/27 09:13:52;;;;;;;12.25;4.68;;;;;;;3.64;94.62;103233.78;5058651;28;20025;-76
2022/02/27 09:16:17;;;;;;;7.53;4.35;;;;;;;3.75;93.35;103236.38;5059068;28;20032;-76
2022/02/27 09:18:42;;;;;;;12.95;4.13;;;;;;;3.90;92.23;103235.03;5059539;28;20070;-76
2022/02/27 09:21:08;;;;;;;7.40;4.38;;;;;;;4.04;92.06;103231.88;5075313;28;20040;-76
2022/02/27 09:23:34;;;;;;;13.05;4.05;;;;;;;4.26;90.99;103233.63;5058208;28;20079;-76
2022/02/27 09:26:00;;;;;;;9.82;4.25;;;;;;;4.66;88.99;103222.84;5051519;28;20024;-75
2022/02/27 09:28:25;;;;;;;10.80;4.00;;;;;;;5.03;88.15;103231.88;5055163;28;20487;-76
2022/02/27 09:30:51;;;;;;;13.02;3.80;;;;;;;5.57;85.14;103216.78;5060345;28;20107;-75
2022/02/27 09:33:16;;;;;;;12.40;4.18;;;;;;;5.91;82.33;103220.22;5047948;28;20036;-76
2022/02/27 09:35:42;;;;;;;13.02;4.30;;;;;;;6.32;78.89;103213.63;5066338;28;20032;-76
2022/02/27 09:38:07;;;;;;;9.27;4.32;;;;;;;6.47;77.64;103202.44;5049221;28;20487;-76
2022/02/27 09:40:32;;;;;;;11.80;4.78;;;;;;;6.80;77.01;103218.72;5043766;28;20419;-75
2022/02/27 09:43:00;;;;;;;12.27;4.13;;;;;;;6.99;75.59;103203.50;5053583;28;20063;-75
2022/02/27 09:45:26;;;;;;;11.43;3.80;;;;;;;7.24;74.42;103197.31;5069777;28;20020;-75
2022/02/27 09:47:53;;;;;;;13.20;4.30;;;;;;;7.38;74.50;103201.78;5046344;28;20112;-75
2022/02/27 09:50:20;;;;;;;5.22;3.15;;;;;;;7.51;72.23;103200.91;5056882;28;20068;-74
2022/02/27 09:52:47;;;;;;;9.30;4.13;;;;;;;7.69;70.71;103195.06;5047291;28;20021;-75
2022/02/27 09:55:14;;;;;;;9.32;4.20;;;;;;;7.69;70.20;103193.38;5066954;28;20028;-76
2022/02/27 09:57:46;;;;;;;13.73;4.20;;;;;;;7.56;70.65;103195.97;5039680;28;20024;-76
2022/02/27 10:00:13;;;;;;;9.50;3.85;;;;;;;7.51;70.80;103192.13;5065136;28;20077;-76
2022/02/27 10:03:06;;;;;;;17.63;4.03;;;;;;;7.51;72.39;103200.00;5051725;28;20419;-76
2022/02/27 10:05:34;;;;;;;11.97;3.93;;;;;;;7.69;70.59;103198.63;5053046;28;20039;-76
2022/02/27 10:08:01;;;;;;;8.00;3.97;;;;;;;7.58;69.81;103199.59;5071216;28;20476;-76
2022/02/27 10:10:27;;;;;;;10.15;3.63;;;;;;;7.67;69.78;103199.31;5070810;28;20111;-75
2022/02/27 10:12:52;;;;;;;11.77;3.60;;;;;;;7.72;68.75;103193.56;5046330;28;20063;-76
2022/02/27 10:15:18;;;;;;;14.07;4.38;;;;;;;7.93;72.22;103203.66;5061518;28;20024;-75
2022/02/27 10:17:45;;;;;;;12.65;3.95;;;;;;;8.15;70.28;103199.81;5067137;28;20032;-75
2022/02/27 10:20:16;;;;;;;7.78;3.28;;;;;;;8.36;71.04;103200.28;5069332;28;20104;-74
2022/02/27 10:22:44;;;;;;;12.68;3.60;;;;;;;8.52;68.06;103191.69;5074710;28;20052;-76
2022/02/27 10:25:24;;;;;;;15.05;4.40;;;;;;;8.51;67.41;103189.88;5056537;28;20070;-76
2022/02/27 10:28:02;;;;;;;9.77;3.55;;;;;;;8.29;67.63;103183.25;5067627;28;20089;-76
2022/02/27 10:30:32;;;;;;;8.73;3.55;;;;;;;8.59;67.09;103180.78;5049453;28;20027;-77
2022/02/27 10:32:58;;;;;;;11.85;4.00;;;;;;;8.66;65.97;103179.44;5071299;28;20548;-77
2022/02/27 10:35:44;;;;;;;10.18;4.25;;;;;;;9.00;65.65;103182.41;5056432;28;20093;-76
2022/02/27 10:38:51;;;;;;;8.20;3.35;;;;;;;9.30;62.82;103165.78;5056233;28;20048;-77
2022/02/27 10:41:21;;;;;;;7.78;3.22;;;;;;;9.54;62.44;103167.22;5050347;28;20032;-76
2022/02/27 10:43:47;;;;;;;8.73;3.38;;;;;;;9.50;58.69;103159.97;5056470;28;20242;-76
2022/02/27 10:46:14;;;;;;;8.27;3.05;;;;;;;9.71;57.87;103164.66;5063961;28;20033;-77
2022/02/27 10:48:40;;;;;;;10.13;3.45;;;;;;;9.55;57.39;103165.47;5051706;28;20051;-76
2022/02/27 10:51:08;;;;;;;8.77;3.33;;;;;;;9.75;58.09;103156.13;5036094;28;20392;-75
2022/02/27 10:53:38;;;;;;;8.90;3.33;;;;;;;10.01;57.39;103160.25;5050908;28;20103;-76
2022/02/27 10:56:08;;;;;;;9.88;3.55;;;;;;;10.14;55.08;103153.94;5033093;28;20028;-77
2022/02/27 10:58:41;;;;;;;7.65;3.30;;;;;;;10.30;56.00;103142.53;5053145;28;20036;-76
2022/02/27 11:01:09;;;;;;;6.43;3.00;;;;;;;10.77;54.31;103145.94;5037548;28;20032;-75
2022/02/27 11:03:37;;;;;;;8.52;3.10;;;;;;;10.69;52.41;103135.00;5033646;28;20056;-75
2022/02/27 11:06:06;;;;;;;10.48;3.30;;;;;;;10.70;52.12;103139.47;5049407;28;20025;-76
2022/02/27 11:08:34;;;;;;;6.93;3.22;;;;;;;11.07;52.49;103138.75;5028846;28;20029;-76
2022/02/27 11:11:00;;;;;;;8.57;3.03;;;;;;;10.99;51.88;103140.06;5015752;28;20068;-77
2022/02/27 11:13:25;;;;;;;6.82;2.78;;;;;;;11.47;51.74;103138.09;5050268;28;20484;-76